Aviation Digital Data Service (ADDS)

Output produced by METARs form (1122 UTC 19 June 2019)
found at http://www.aviationweather.gov/metar/data/
 
TAF SBAT 190300Z 1906/1918 00000KT CAVOK TN19/1909Z TX34/1917Z 
     BECMG 1912/1914 10005KT RMK PGU
       
TAF SBAN 190400Z 1906/1918 08007KT CAVOK TN15/1909Z TX25/1917Z 
     BECMG 1913/1915 11008KT 9999 SCT040 RMK PFN
       
TAF SBAR 191000Z 1912/2012 12007KT 9999 SCT018 TX30/1916Z TN27/2007Z 
     BECMG 1913/1915 SCT018 FEW020TCU 
     BECMG 1922/1924 10010KT SCT017 RMK PFM
       
TAF SBBG 190930Z 1912/2012 28007KT 9999 OVC020 TX18/1918Z TN07/2009Z 
     BECMG 1912/1914 28013KT SCT030 
     BECMG 1914/1916 CAVOK 
     BECMG 1923/2001 27007 KT 9999 BKN020 
     PROB40 
     TEMPO 2004/2011 0500 FG BKN003 RMK PER
       
TAF SBBW 190400Z 1906/1918 00000KT CAVOK TN22/1908Z TX31/1917Z 
     BECMG 1912/1914 09008KT RMK PFN
       
TAF SBBU 190300Z 1906/1918 12004KT CAVOK TN16/1909Z TX29/1918Z 
     PROB30 
     TEMPO 1910/1912 8000 NSC 
     BECMG 1914/1916 27007KT RMK PER
       
TAF SBBE 190900Z 1912/2012 09010KT 9999 SCT015 TX33/1918Z TN24/2009Z 
     BECMG 1914/1916 12010KT SCT030 FEW035TCU 
     BECMG 1920/1922 01010KT 3500 TSRA BKN020 FEW025CB 
     BECMG 2001/2003 10005KT 7000 NSW SCT017 
     BECMG 2005/2007 10005KT SCT010 RMK PGU
       
TAF SBCF 191000Z 1912/2012 13008KT CAVOK TX22/1917Z TN11/2008Z 
     BECMG 1914/1916 09008KT 9999 SCT030 
     BECMG 1921/1923 CAVOK RMK PFN
       
TAF SBBV 190900Z 1912/2012 04005KT 7000 SCT015 SCT035 TX32/1919Z TN23 /2009Z 
     TEMPO 1914/1918 4000 SHRA BKN007 FEW025TCU 
     BECMG 1918/1920 SCT030 FEW035TCU 
     PROB40 1920/1924 4500 SHRA SCT040 FEW045TCU RMK PGU
       
TAF SBBR 191000Z 1912/2012 07010KT CAVOK TX26/1917Z TN16/2009Z 
     BECMG 1919/1921 
     BECMG 1916/1918 9999 SCT040 
     BECMG 1919/1921 12007KT CAVOK RMK PFN
       
TAF SBCB 190900Z 1912/2012 06005KT 9999 FEW020 TX27/1915Z TN20/2009Z 
     BECMG 1913/1915 10010KT FEW025 
     BECMG 2009/2011 06005KT FEW015 RMK PHD
       
TAF SBKG 190400Z 1906/1918 16005KT 8000 SCT010 TN21/1907Z TX29/1917Z 
     PROB30 1910/1912 BKN011 
     BECMG 1913/1914 14015KT 9999 SCT020 RMK PFM
       
TAF SBKP 190948Z 1912/2012 11005KT CAVOK TX25/1918Z TN14/2009Z 
     BECMG 1913/1915 01005KT FEW030 
     BECMG 1916/1918 28005KT SCT045 
     BECMG 1919/1921 17005KT CAVOK 
     BECMG 1923/2001 12005KT 
     PROB30 2009/2011 5000 BR RMK PGF
       
TAF SBCG 190930Z 1912/2012 08006KT CAVOK TX30/1917Z TN18/2009Z 
     BECMG 1917/1919 16006KT RMK PER
       
TAF SBCP 190300Z 1906/1918 34003KT 9999 FEW015 TN18/1910Z TX27/1916Z 
     BECMG 1915/1917 07005KT FEW020 RMK PHD
       
TAF SBCR 190930Z 1912/2012 09004KT CAVOK TX30/1918Z TN19/2009Z 
     BECMG 1912/1914 20005KT RMK PER
       
TAF SBCZ 190900Z 1912/2012 11005KT 9999 SCT030 TX32/1918Z TN23/2006Z 
     BECMG 1923/2001 00000KT CAVOK RMK PHD
       
TAF SBCY 190900Z 1912/2012 32005KT CAVOK TX35/1916Z TN22/2009Z 
     BECMG 1914/1916 36005KT FEW020 
     BECMG 1918/1920 33005KT 
     BECMG 2000/2002 09005KT CAVOK 
     BECMG 2004/2006 30003KT RMK PHD
       
TAF SBCT 190930Z 1912/2012 02005KT 9000 SCT010 TX24/1918Z TN13/2009Z 
     BECMG 1912/1914 28008KT 9999 NSW SCT030 
     BECMG 1923/2001 02005KT CAVOK 
     PROB 40 
     TEMPO 2008/2011 2000 BCFG BR BKN003 RMK PER
       
TAF SBBI 190300Z 1906/1918 01005KT 9999 SCT030 TN13/1909Z TX24/1918Z 
     PROB40 
     TEMPO 1908/1911 3000 BCFG BR BKN003 
     BECMG 1912/1914 27008KT RMK PER
       
TAF SBFN 191000Z 1912/1924 09005KT 9999 SCT019 TN25/1912Z TX29/1917Z 
     BECMG 1913/1915 11010KT SCT025 
     BECMG 1922/1924 09006KT SCT017 RMK PFM
       
TAF SBFL 190930Z 1912/2012 34007KT CAVOK TX27/1916Z TN17/2008Z 
     BECMG 1916/1918 19015KT 9999 FEW030 
     BECMG 1922/1924 17007KT SCT030 
     BECMG 2000/2002 B KN020 
     BECMG 2010/2012 SCT030 RMK PER
       
TAF SBFZ 191000Z 1912/2012 13004KT 9999 SCT020 TX30/1915Z TN25/2010Z 
     BECMG 1914/1915 10009KT BKN022 
     BECMG 1917/1918 SCT019 RMK PFM
       
TAF SBFI 190930Z 1912/2012 22005KT CAVOK TX25/1918Z TN15/2009Z 
     BECMG 1912/1914 9999 FEW025 
     BECMG 1921/1923 CAVOK 
     PROB40 
     TEMPO 2007/2011 0500 FG OVC 002 RMK PER
       
TAF SBGO 191000Z 1912/2012 00000KT CAVOK TX28/1917Z TN16/2008Z 
     BECMG 1913/1915 09010KT 
     BECMG 1923/2001 14005KT RMK PFN
       
TAF SBGW 190300Z 1906/1918 06004KT 6000 FEW020 TN16/1908Z TX28/1918Z 
     PROB30 1908/1910 2000 BR BKN009 
     BECMG 1912/1914 CAVOK 
     BECMG 1914/1916 20007KT RMK PER
       
TAF SBIL 190400Z 1906/1918 22005KT 8000 SCT020 TN22/1908Z TX28/1915Z 
     BECMG 1915/1916 18010KT SCT025 RMK PFM
       
TAF SBIZ 190300Z 1906/1918 00000KT CAVOK TN24/1909Z TX33/1917Z 
     BECMG 1908/1910 16005KT SCT020 RMK PGU
       
TAF SBIH 190300Z 1906/1918 00000KT 8000 SCT007 TN24/1909Z TX34/1917Z 
     BECMG 1912/1914 11005KT FEW020 RMK PGU